Time;durP1;ratioP1;P1;durP2;ratioP2;P2;SDS_P1;SDS_P2;PMS_P1;PMS_P2;Temp;Humidity;BMP_temperature;BMP_pressure;BME280_temperature;BME280_humidity;BME280_pressure;Samples;Min_cycle;Max_cycle;Signal;HPM_P1;HPM_P2
2022/05/19 00:02:16;;;;;;;4.30;3.70;;;;;;;22.52;47.50;97903.53;5045324;28;20421;-72
2022/05/19 00:04:42;;;;;;;5.70;3.80;;;;;;;22.43;47.92;97895.97;5034766;28;20423;-71
2022/05/19 00:07:08;;;;;;;4.70;3.60;;;;;;;22.44;47.66;97900.28;5035429;28;20617;-71
2022/05/19 00:09:34;;;;;;;4.90;3.80;;;;;;;22.43;47.63;97891.44;5049622;28;20486;-72
2022/05/19 00:12:06;;;;;;;4.63;4.17;;;;;;;22.37;47.75;97892.28;5050929;28;20425;-72
2022/05/19 00:14:31;;;;;;;4.73;3.53;;;;;;;22.37;47.94;97889.59;5042288;28;20178;-71
2022/05/19 00:16:57;;;;;;;4.40;4.00;;;;;;;22.35;47.73;97886.31;5050460;28;20444;-72
2022/05/19 00:19:24;;;;;;;7.30;3.40;;;;;;;22.36;48.02;97888.78;5050471;28;20182;-73
2022/05/19 00:21:50;;;;;;;7.23;4.87;;;;;;;22.40;48.13;97883.84;5050772;28;20198;-72
2022/05/19 00:24:16;;;;;;;9.90;6.73;;;;;;;22.32;48.04;97887.56;5050686;28;20429;-75
2022/05/19 00:26:41;;;;;;;4.50;4.10;;;;;;;22.23;47.89;97878.97;5050401;28;20252;-71
2022/05/19 00:29:07;;;;;;;6.83;5.00;;;;;;;22.19;48.07;97872.41;5050543;28;20273;-72
2022/05/19 00:31:33;;;;;;;7.50;4.27;;;;;;;22.13;48.08;97872.44;5054743;28;20270;-72
2022/05/19 00:33:59;;;;;;;4.93;3.40;;;;;;;22.09;48.28;97874.69;5036397;28;20211;-72
2022/05/19 00:36:25;;;;;;;4.40;3.63;;;;;;;22.03;48.16;97872.91;5055292;28;20321;-71
2022/05/19 00:38:51;;;;;;;6.90;4.00;;;;;;;21.92;48.54;97877.84;5050784;28;20520;-71
2022/05/19 00:41:17;;;;;;;4.17;3.87;;;;;;;21.89;48.61;97864.91;5053322;28;20832;-73
2022/05/19 00:43:46;;;;;;;5.00;4.07;;;;;;;21.89;48.60;97858.75;5050144;28;20195;-75
2022/05/19 00:46:20;;;;;;;7.50;4.30;;;;;;;21.85;48.86;97854.88;5053403;28;20205;-75
2022/05/19 00:48:52;;;;;;;4.53;3.93;;;;;;;21.83;48.60;97857.75;5053388;28;20434;-73
2022/05/19 00:51:19;;;;;;;5.73;3.80;;;;;;;21.73;49.15;97865.34;5054325;28;20418;-72
2022/05/19 00:53:48;;;;;;;9.40;4.03;;;;;;;21.71;49.00;97862.06;5059190;28;20464;-72
2022/05/19 00:56:20;;;;;;;8.23;3.83;;;;;;;21.71;49.17;97862.91;5054632;28;20793;-72
2022/05/19 00:59:06;;;;;;;6.43;5.13;;;;;;;21.70;48.79;97858.59;5059072;28;20531;-73
2022/05/19 01:01:33;;;;;;;4.83;4.33;;;;;;;21.67;49.21;97867.00;5050649;28;20486;-72
2022/05/19 01:04:03;;;;;;;4.10;3.70;;;;;;;21.56;49.01;97855.09;5056695;28;20433;-72
2022/05/19 01:06:29;;;;;;;5.67;3.73;;;;;;;21.59;49.30;97857.38;5044316;28;20455;-71
2022/05/19 01:09:05;;;;;;;5.80;4.43;;;;;;;21.54;48.86;97854.50;5053949;28;20437;-72
2022/05/19 01:11:31;;;;;;;4.23;3.83;;;;;;;21.48;48.81;97857.97;5045093;28;20186;-72
2022/05/19 01:13:57;;;;;;;7.20;4.70;;;;;;;21.38;49.60;97850.38;5053104;28;20449;-71
2022/05/19 01:16:23;;;;;;;4.03;3.43;;;;;;;21.33;49.28;97848.34;5056757;28;20531;-71
2022/05/19 01:18:50;;;;;;;4.40;3.97;;;;;;;21.31;49.78;97852.25;5065867;28;20428;-71
2022/05/19 01:21:18;;;;;;;4.03;3.63;;;;;;;21.28;49.43;97848.16;5054933;28;20469;-71
2022/05/19 01:24:02;;;;;;;7.03;4.40;;;;;;;21.26;49.07;97852.88;5052805;28;20433;-72
2022/05/19 01:26:28;;;;;;;3.87;3.50;;;;;;;21.24;49.66;97846.09;5045523;28;20444;-72
2022/05/19 01:28:57;;;;;;;7.50;4.77;;;;;;;21.19;49.46;97849.38;5054365;28;20429;-72
2022/05/19 01:31:32;;;;;;;7.77;3.87;;;;;;;21.16;49.83;97844.47;5055228;28;20194;-72
2022/05/19 01:33:58;;;;;;;8.40;3.97;;;;;;;21.14;49.63;97839.34;5057050;28;20539;-73
2022/05/19 01:36:24;;;;;;;4.00;3.67;;;;;;;21.07;49.76;97843.84;5059296;28;20453;-72
2022/05/19 01:38:58;;;;;;;3.97;3.57;;;;;;;21.06;49.67;97844.88;5056709;28;20917;-73
2022/05/19 01:41:38;;;;;;;3.77;3.47;;;;;;;21.06;49.49;97836.88;5056639;28;20210;-72
2022/05/19 01:44:26;;;;;;;8.37;3.60;;;;;;;20.93;49.63;97843.00;5050532;28;20940;-71
2022/05/19 01:46:59;;;;;;;3.67;3.37;;;;;;;20.91;49.56;97836.25;5060098;28;20444;-72
2022/05/19 01:49:29;;;;;;;5.30;3.53;;;;;;;20.70;49.97;97828.19;5052355;28;20425;-72
2022/05/19 01:52:04;;;;;;;5.23;3.80;;;;;;;20.79;49.93;97833.38;5054206;28;20429;-71
2022/05/19 01:54:51;;;;;;;7.47;3.63;;;;;;;20.68;50.54;97838.22;5041518;28;20436;-68
2022/05/19 01:57:39;;;;;;;7.17;3.87;;;;;;;20.75;49.93;97830.28;5051299;28;20528;-72
2022/05/19 02:00:21;;;;;;;4.40;3.90;;;;;;;20.65;50.18;97830.66;5051522;28;20560;-72
2022/05/19 02:03:32;;;;;;;4.40;4.00;;;;;;;20.53;50.31;97824.28;5048726;28;20440;-71
2022/05/19 02:06:15;;;;;;;6.40;3.30;;;;;;;20.53;50.71;97834.94;5048967;28;20513;-71
2022/05/19 02:09:03;;;;;;;3.93;3.17;;;;;;;20.53;50.46;97832.28;5045711;28;20964;-72
2022/05/19 02:11:35;;;;;;;5.57;3.60;;;;;;;20.58;50.51;97829.81;5052007;28;20867;-72
2022/05/19 02:14:06;;;;;;;5.63;3.40;;;;;;;20.52;50.52;97833.28;5049051;28;20439;-71
2022/05/19 02:16:32;;;;;;;4.13;3.53;;;;;;;20.50;50.73;97835.34;5044426;28;20540;-72
2022/05/19 02:18:58;;;;;;;3.90;3.47;;;;;;;20.49;50.54;97825.69;5053346;28;20429;-72
2022/05/19 02:21:24;;;;;;;5.33;3.53;;;;;;;20.50;50.62;97832.66;5052484;28;20465;-70
2022/05/19 02:23:50;;;;;;;3.53;3.23;;;;;;;20.49;50.63;97833.69;5051979;28;20432;-72
2022/05/19 02:26:16;;;;;;;4.30;3.30;;;;;;;20.45;50.43;97829.78;5052490;28;20772;-77
2022/05/19 02:28:43;;;;;;;4.50;3.70;;;;;;;20.40;50.58;97831.22;5052914;28;20183;-71
2022/05/19 02:31:08;;;;;;;3.97;3.23;;;;;;;20.38;50.27;97829.75;5052044;28;20452;-72
2022/05/19 02:33:34;;;;;;;4.23;3.57;;;;;;;20.35;50.90;97830.97;5064271;28;20427;-71
2022/05/19 02:36:01;;;;;;;4.57;4.07;;;;;;;20.38;50.62;97835.91;5061564;28;20186;-71
2022/05/19 02:38:26;;;;;;;3.80;3.50;;;;;;;20.29;50.96;97829.09;5044148;28;20473;-72
2022/05/19 02:40:52;;;;;;;3.50;3.10;;;;;;;20.29;50.82;97839.75;5055414;28;20555;-72
2022/05/19 02:43:18;;;;;;;3.53;3.30;;;;;;;20.25;50.89;97831.34;5052516;28;20179;-73
2022/05/19 02:45:44;;;;;;;6.10;3.60;;;;;;;20.16;50.52;97837.88;5048679;28;20191;-74
2022/05/19 02:48:10;;;;;;;4.63;3.80;;;;;;;20.10;51.13;97839.50;5048214;28;20453;-71
2022/05/19 02:50:36;;;;;;;3.90;3.50;;;;;;;20.08;50.78;97838.06;5051146;28;20422;-70
2022/05/19 02:53:03;;;;;;;5.50;3.80;;;;;;;20.14;51.06;97836.44;5051963;28;20178;-72
2022/05/19 02:55:29;;;;;;;7.00;3.50;;;;;;;20.03;51.06;97841.31;5051808;28;20426;-71
2022/05/19 02:57:54;;;;;;;4.50;3.57;;;;;;;20.01;50.98;97834.53;5050416;28;20566;-73
2022/05/19 03:00:24;;;;;;;10.13;3.60;;;;;;;19.97;51.32;97836.75;5051633;28;20219;-70
2022/05/19 03:02:52;;;;;;;3.60;3.30;;;;;;;20.01;51.33;97839.84;5059862;28;20198;-71
2022/05/19 03:05:20;;;;;;;6.50;3.27;;;;;;;19.92;51.49;97841.84;5053981;28;20421;-71
2022/05/19 03:07:46;;;;;;;10.10;3.63;;;;;;;19.92;51.48;97836.53;5062997;28;20452;-72
2022/05/19 03:10:12;;;;;;;5.97;4.47;;;;;;;19.83;51.13;97835.03;5051928;28;20448;-70
2022/05/19 03:12:38;;;;;;;4.10;3.70;;;;;;;19.80;51.69;97833.59;5050878;28;20187;-73
2022/05/19 03:15:04;;;;;;;5.00;3.67;;;;;;;19.85;51.48;97831.13;5049602;28;20229;-71
2022/05/19 03:17:30;;;;;;;5.30;4.13;;;;;;;19.85;51.45;97825.81;5051611;28;20207;-71
2022/05/19 03:19:56;;;;;;;5.70;3.83;;;;;;;19.78;51.67;97832.97;5058236;28;20820;-72
2022/05/19 03:22:24;;;;;;;6.07;3.90;;;;;;;19.78;51.59;97828.44;5051827;28;20425;-70
2022/05/19 03:24:50;;;;;;;3.70;3.40;;;;;;;19.79;51.55;97830.09;5052282;28;20186;-73
2022/05/19 03:27:16;;;;;;;7.70;3.40;;;;;;;19.80;51.37;97833.59;5050828;28;20449;-70
2022/05/19 03:29:41;;;;;;;4.10;3.63;;;;;;;19.82;51.82;97830.72;5054958;28;20266;-71
2022/05/19 03:32:07;;;;;;;4.60;3.70;;;;;;;19.68;51.68;97830.63;5054675;28;20820;-72
2022/05/19 03:34:32;;;;;;;4.00;3.60;;;;;;;19.66;51.84;97827.34;5030278;28;20670;-73
2022/05/19 03:37:02;;;;;;;9.90;4.00;;;;;;;19.67;51.35;97831.66;5055634;28;20228;-71
2022/05/19 03:39:28;;;;;;;6.80;4.07;;;;;;;19.49;51.54;97826.84;5047970;28;20187;-71
2022/05/19 03:41:53;;;;;;;8.73;3.63;;;;;;;19.53;51.75;97824.63;5061546;28;20421;-72
2022/05/19 03:44:19;;;;;;;4.30;3.90;;;;;;;19.57;51.80;97821.41;5059948;28;20233;-71
2022/05/19 03:46:44;;;;;;;3.50;3.20;;;;;;;19.53;51.70;97822.78;5058762;28;20245;-71
2022/05/19 03:49:12;;;;;;;6.70;3.77;;;;;;;19.48;52.14;97828.69;5050883;28;20179;-71
2022/05/19 03:51:40;;;;;;;5.23;3.80;;;;;;;19.47;51.93;97819.06;5051108;28;20252;-71
2022/05/19 03:54:05;;;;;;;3.77;3.47;;;;;;;19.49;52.27;97811.72;5052239;28;20801;-71
2022/05/19 03:56:31;;;;;;;4.10;3.80;;;;;;;19.52;52.15;97823.00;5050656;28;20453;-70
2022/05/19 03:58:56;;;;;;;4.50;4.10;;;;;;;19.51;52.08;97832.78;5050795;28;20187;-72
2022/05/19 04:01:22;;;;;;;5.57;3.80;;;;;;;19.53;51.63;97829.97;5052840;28;20234;-70
2022/05/19 04:03:49;;;;;;;10.33;3.77;;;;;;;19.51;52.03;97834.66;5055775;28;20197;-71
2022/05/19 04:06:15;;;;;;;5.83;4.83;;;;;;;19.45;51.76;97837.03;5050708;28;20187;-74
2022/05/19 04:08:41;;;;;;;10.53;4.67;;;;;;;19.39;52.39;97840.50;5058880;28;20434;-72
2022/05/19 04:11:07;;;;;;;7.23;4.43;;;;;;;19.30;52.53;97837.16;5051095;28;20992;-71
2022/05/19 04:13:32;;;;;;;5.00;3.53;;;;;;;19.40;52.52;97833.31;5050876;28;20183;-70
2022/05/19 04:15:58;;;;;;;8.13;4.20;;;;;;;19.42;52.25;97842.75;5050914;28;20195;-71
2022/05/19 04:18:23;;;;;;;9.93;4.27;;;;;;;19.44;52.51;97830.09;5050559;28;20229;-74
2022/05/19 04:20:49;;;;;;;5.70;4.03;;;;;;;19.45;52.26;97847.69;5053447;28;20207;-69
2022/05/19 04:23:14;;;;;;;5.73;4.20;;;;;;;19.51;52.46;97850.59;5054346;28;20186;-69
2022/05/19 04:25:41;;;;;;;7.17;4.00;;;;;;;19.57;52.35;97849.78;5053442;28;20190;-72
2022/05/19 04:28:07;;;;;;;6.03;3.80;;;;;;;19.58;52.43;97864.72;5054095;28;20206;-69
2022/05/19 04:30:33;;;;;;;5.20;4.37;;;;;;;19.63;51.82;97855.16;5054807;28;20425;-71
2022/05/19 04:32:58;;;;;;;4.30;3.80;;;;;;;19.55;52.03;97854.47;5060487;28;20193;-73
2022/05/19 04:35:24;;;;;;;7.23;4.40;;;;;;;19.59;52.87;97858.41;5055815;28;20183;-72
2022/05/19 04:37:49;;;;;;;6.33;3.70;;;;;;;19.70;52.53;97855.19;5054366;28;20584;-71
2022/05/19 04:40:17;;;;;;;4.70;4.17;;;;;;;19.73;52.56;97853.97;5065310;28;20194;-71
2022/05/19 04:42:43;;;;;;;5.00;4.20;;;;;;;19.80;52.68;97850.34;5050069;28;20717;-71
2022/05/19 04:45:11;;;;;;;6.73;3.50;;;;;;;19.85;52.27;97856.94;5054131;28;20440;-71
2022/05/19 04:47:36;;;;;;;5.33;4.00;;;;;;;19.69;53.30;97858.88;5054025;28;20445;-71
2022/05/19 04:50:02;;;;;;;4.83;4.10;;;;;;;19.65;53.89;97862.97;5051540;28;20495;-71
2022/05/19 04:52:28;;;;;;;6.17;4.53;;;;;;;19.75;53.58;97852.78;5054808;28;20194;-71
2022/05/19 04:54:53;;;;;;;5.70;3.90;;;;;;;19.77;53.39;97860.56;5054561;28;20183;-71
2022/05/19 04:57:18;;;;;;;4.30;3.90;;;;;;;19.92;52.25;97869.28;5062294;28;20245;-71
2022/05/19 04:59:44;;;;;;;5.17;4.10;;;;;;;20.06;51.76;97864.03;5051220;28;20232;-71
2022/05/19 05:02:11;;;;;;;5.43;4.20;;;;;;;20.17;51.90;97870.63;5061579;28;20675;-70
2022/05/19 05:04:37;;;;;;;4.63;4.07;;;;;;;20.14;51.46;97863.84;5054146;28;20269;-72
2022/05/19 05:07:03;;;;;;;3.90;3.60;;;;;;;20.25;51.30;97871.28;5046869;28;20542;-73
2022/05/19 05:09:29;;;;;;;6.03;3.70;;;;;;;20.35;49.81;97870.09;5058233;28;20232;-71
2022/05/19 05:11:54;;;;;;;4.37;3.97;;;;;;;20.46;49.77;97876.66;5058299;28;20434;-72
2022/05/19 05:14:20;;;;;;;5.53;4.03;;;;;;;20.56;48.74;97869.13;5052233;28;20194;-71
2022/05/19 05:16:50;;;;;;;5.40;3.33;;;;;;;20.57;47.76;97870.75;5046249;28;20248;-71
2022/05/19 05:19:19;;;;;;;8.53;4.73;;;;;;;20.52;47.91;97878.56;5053358;28;20425;-72
2022/05/19 05:21:47;;;;;;;14.10;4.40;;;;;;;20.51;47.71;97882.22;5052732;28;20838;-71
2022/05/19 05:24:13;;;;;;;8.47;4.10;;;;;;;20.57;48.17;97884.09;5053133;28;20434;-74
2022/05/19 05:26:39;;;;;;;5.10;4.53;;;;;;;20.65;47.86;97877.75;5053111;28;20456;-72
2022/05/19 05:29:04;;;;;;;6.03;3.83;;;;;;;20.73;48.19;97885.56;5052448;28;20266;-72
2022/05/19 05:31:29;;;;;;;6.23;4.00;;;;;;;20.85;48.42;97877.84;5064390;28;20695;-73
2022/05/19 05:33:55;;;;;;;10.73;4.90;;;;;;;20.83;47.87;97877.22;5048632;28;20216;-72
2022/05/19 05:36:20;;;;;;;12.40;4.40;;;;;;;20.72;48.25;97873.28;5057540;28;20183;-76
2022/05/19 05:38:46;;;;;;;5.37;4.10;;;;;;;20.83;48.45;97875.38;5051324;28;20178;-74
2022/05/19 05:41:13;;;;;;;8.10;4.40;;;;;;;20.87;48.41;97871.28;5071767;28;20330;-73
2022/05/19 05:43:40;;;;;;;5.63;4.30;;;;;;;20.98;48.18;97871.72;5050107;28;20193;-73
2022/05/19 05:46:08;;;;;;;8.40;3.70;;;;;;;21.13;48.28;97866.19;5072799;28;20427;-71
2022/05/19 05:48:36;;;;;;;5.17;3.73;;;;;;;21.29;48.17;97868.47;5073198;28;20511;-71
2022/05/19 05:51:09;;;;;;;7.03;3.57;;;;;;;21.43;48.10;97860.44;5073417;28;20474;-72
2022/05/19 05:53:36;;;;;;;7.37;3.60;;;;;;;21.61;48.06;97866.00;5043555;28;20468;-71
2022/05/19 05:56:03;;;;;;;3.30;3.00;;;;;;;21.77;48.25;97863.91;5069308;28;20421;-70
2022/05/19 05:58:28;;;;;;;11.23;3.33;;;;;;;21.91;47.25;97867.38;5067461;28;20428;-71
2022/05/19 06:00:54;;;;;;;4.73;3.00;;;;;;;22.01;46.20;97867.75;5070628;28;20461;-71
2022/05/19 06:03:20;;;;;;;4.60;3.33;;;;;;;22.19;46.59;97864.41;5071496;28;20204;-72
2022/05/19 06:05:45;;;;;;;4.00;3.03;;;;;;;22.37;46.53;97871.72;5067681;28;20257;-70
2022/05/19 06:08:11;;;;;;;8.50;3.20;;;;;;;22.53;46.01;97870.47;5060542;28;20196;-70
2022/05/19 06:10:36;;;;;;;3.80;2.80;;;;;;;22.72;45.63;97869.75;5059009;28;20209;-70
2022/05/19 06:13:02;;;;;;;6.47;3.40;;;;;;;22.79;45.24;97878.53;5068184;28;20182;-69
2022/05/19 06:15:28;;;;;;;3.40;2.67;;;;;;;22.95;44.38;97875.34;5055887;28;20634;-70
2022/05/19 06:17:53;;;;;;;4.10;3.10;;;;;;;23.06;43.89;97865.00;5065693;28;20206;-70
2022/05/19 06:20:19;;;;;;;5.60;2.93;;;;;;;23.23;43.63;97878.66;5072436;28;20225;-71
2022/05/19 06:22:46;;;;;;;10.13;3.50;;;;;;;23.38;43.82;97870.31;5054700;28;20189;-72
2022/05/19 06:25:16;;;;;;;9.10;3.67;;;;;;;23.56;43.83;97872.25;5069550;28;20265;-71
2022/05/19 06:27:42;;;;;;;4.73;3.20;;;;;;;23.64;42.98;97877.28;5064683;28;20437;-72
2022/05/19 06:30:09;;;;;;;4.30;2.93;;;;;;;23.60;42.43;97870.75;5072129;28;20432;-71
2022/05/19 06:32:36;;;;;;;5.90;3.10;;;;;;;23.65;41.84;97875.44;5067447;28;20963;-71
2022/05/19 06:35:02;;;;;;;2.93;2.63;;;;;;;23.71;42.10;97880.72;5063598;28;20533;-71
2022/05/19 06:37:28;;;;;;;3.33;3.00;;;;;;;23.92;42.00;97882.16;5069204;28;20453;-73
2022/05/19 06:39:53;;;;;;;4.70;3.07;;;;;;;23.95;41.76;97882.75;5063236;28;20542;-72
2022/05/19 06:42:18;;;;;;;9.00;3.30;;;;;;;23.92;41.25;97879.47;5070716;28;20638;-71
2022/05/19 06:44:44;;;;;;;5.00;2.97;;;;;;;24.00;41.22;97870.38;5044901;28;20182;-72
2022/05/19 06:47:14;;;;;;;3.17;2.87;;;;;;;24.13;41.19;97872.06;5050833;28;20203;-70
2022/05/19 06:49:44;;;;;;;4.23;2.67;;;;;;;24.42;40.92;97871.53;5050571;28;20191;-70
2022/05/19 06:52:15;;;;;;;3.10;2.60;;;;;;;24.61;41.26;97869.63;5051683;28;20429;-71
2022/05/19 06:54:45;;;;;;;3.33;2.70;;;;;;;24.82;40.46;97871.84;5047690;28;20441;-72
2022/05/19 06:57:11;;;;;;;10.80;2.77;;;;;;;24.93;40.05;97872.94;5051325;28;20456;-70
2022/05/19 06:59:36;;;;;;;5.20;2.50;;;;;;;25.04;39.71;97873.19;5062613;28;20425;-71
2022/05/19 07:02:04;;;;;;;4.00;2.90;;;;;;;25.26;39.82;97876.94;5071666;28;20185;-71
2022/05/19 07:04:29;;;;;;;3.20;2.90;;;;;;;25.38;39.84;97871.59;5067056;28;20533;-72
2022/05/19 07:06:55;;;;;;;3.10;2.83;;;;;;;25.63;40.05;97875.13;5061218;28;20450;-71
2022/05/19 07:09:20;;;;;;;6.00;3.00;;;;;;;25.40;39.78;97877.53;5039114;28;20728;-74
2022/05/19 07:11:46;;;;;;;6.73;3.30;;;;;;;25.53;39.75;97883.75;5030911;28;20172;-74
2022/05/19 07:14:11;;;;;;;8.20;2.90;;;;;;;25.57;38.95;97888.44;5033184;28;20848;-72
2022/05/19 07:16:37;;;;;;;4.13;2.70;;;;;;;25.74;38.94;97887.72;5062279;28;20194;-73
2022/05/19 07:21:47;;;;;;;3.50;2.80;;;;;;;25.95;38.05;97888.19;5043527;28;20225;-72
2022/05/19 07:24:15;;;;;;;6.03;3.03;;;;;;;26.13;37.50;97882.69;5068602;28;20424;-73
2022/05/19 07:26:47;;;;;;;3.97;2.77;;;;;;;26.33;37.76;97878.81;5072293;28;20437;-72
2022/05/19 07:29:13;;;;;;;7.80;2.83;;;;;;;26.20;37.02;97880.69;5073028;28;20439;-73
2022/05/19 07:31:40;;;;;;;5.20;3.50;;;;;;;26.24;38.04;97880.22;5065989;28;20516;-72
2022/05/19 07:34:07;;;;;;;7.33;2.90;;;;;;;26.53;36.89;97883.72;5073533;28;20446;-73
2022/05/19 07:36:32;;;;;;;4.80;3.10;;;;;;;26.34;37.48;97877.72;5060930;28;20804;-73
2022/05/19 07:38:59;;;;;;;5.20;2.40;;;;;;;26.64;37.70;97882.06;5057231;28;20435;-74
2022/05/19 07:41:29;;;;;;;3.33;2.37;;;;;;;26.87;36.81;97883.03;5067873;28;20209;-73
2022/05/19 07:43:55;;;;;;;5.63;2.80;;;;;;;26.70;36.67;97878.44;5071218;28;20429;-74
2022/05/19 07:46:21;;;;;;;3.03;2.77;;;;;;;26.74;36.92;97884.13;5070711;28;20428;-72
2022/05/19 07:48:47;;;;;;;3.60;3.17;;;;;;;26.70;37.06;97878.44;5057024;28;20427;-73
2022/05/19 07:51:13;;;;;;;4.90;2.90;;;;;;;27.05;36.98;97873.94;5067085;28;20266;-74
2022/05/19 07:53:38;;;;;;;5.03;2.43;;;;;;;27.18;36.85;97888.97;5058424;28;20629;-74
2022/05/19 07:56:04;;;;;;;4.93;2.60;;;;;;;27.42;36.34;97874.28;5070646;28;20421;-73
2022/05/19 07:58:30;;;;;;;5.17;2.47;;;;;;;27.57;36.02;97878.28;5071014;28;20199;-74
2022/05/19 08:00:57;;;;;;;2.93;2.73;;;;;;;27.82;35.68;97869.75;5068860;28;20198;-73
2022/05/19 08:03:23;;;;;;;5.43;2.50;;;;;;;27.77;35.31;97879.63;5070091;28;20174;-72
2022/05/19 08:05:50;;;;;;;5.63;3.00;;;;;;;27.94;35.81;97875.03;5065990;28;20515;-72
2022/05/19 08:08:15;;;;;;;3.13;2.67;;;;;;;28.19;35.32;97873.78;5055372;28;20976;-72
2022/05/19 08:10:41;;;;;;;5.07;2.57;;;;;;;28.18;34.97;97869.44;5058317;28;20417;-72
2022/05/19 08:15:50;;;;;;;3.27;2.97;;;;;;;27.83;35.81;97878.66;5070794;28;20297;-73
2022/05/19 08:18:18;;;;;;;3.50;2.73;;;;;;;28.05;35.78;97871.41;5070372;28;20535;-73
2022/05/19 08:20:46;;;;;;;3.87;2.83;;;;;;;28.31;35.06;97871.75;5070702;28;20746;-72
2022/05/19 08:23:21;;;;;;;4.17;2.40;;;;;;;28.46;35.40;97873.00;5062398;28;20436;-72
2022/05/19 08:25:47;;;;;;;3.30;3.00;;;;;;;28.72;34.82;97867.88;5070928;28;20906;-72
2022/05/19 08:28:16;;;;;;;3.07;2.63;;;;;;;29.02;34.88;97871.94;5070054;28;20447;-77
2022/05/19 08:30:44;;;;;;;4.50;2.70;;;;;;;29.09;34.33;97861.78;5062698;28;20220;-72
2022/05/19 08:33:09;;;;;;;3.67;3.00;;;;;;;29.22;33.45;97864.03;5069033;28;20428;-73
2022/05/19 08:35:35;;;;;;;4.30;2.60;;;;;;;29.40;33.30;97865.56;5065350;28;20458;-73
2022/05/19 08:38:01;;;;;;;4.73;2.70;;;;;;;29.42;33.58;97860.69;5062671;28;20206;-75
2022/05/19 08:40:27;;;;;;;3.10;2.70;;;;;;;29.57;33.14;97857.28;5051068;28;20236;-73
2022/05/19 08:42:57;;;;;;;3.23;2.47;;;;;;;29.69;32.92;97865.19;5069227;28;20266;-73
2022/05/19 08:45:29;;;;;;;3.00;2.70;;;;;;;29.93;33.61;97858.56;5069147;28;20219;-73
2022/05/19 08:48:02;;;;;;;3.70;2.70;;;;;;;30.02;32.84;97862.41;5070296;28;20506;-72
2022/05/19 08:50:38;;;;;;;3.80;2.40;;;;;;;30.23;32.93;97852.50;5070488;28;20523;-74
2022/05/19 08:53:03;;;;;;;4.77;2.50;;;;;;;30.43;32.87;97849.06;5069131;28;20428;-73
2022/05/19 08:55:29;;;;;;;5.70;2.60;;;;;;;30.66;32.25;97843.47;5070236;28;20432;-72
2022/05/19 08:57:55;;;;;;;6.87;2.70;;;;;;;30.58;32.43;97847.50;5070132;28;20204;-72
2022/05/19 09:00:31;;;;;;;5.37;2.60;;;;;;;30.73;32.59;97850.22;5067732;28;20207;-73
2022/05/19 09:03:45;;;;;;;5.33;2.90;;;;;;;31.12;31.91;97848.91;5070506;28;20174;-73
2022/05/19 09:06:16;;;;;;;3.50;2.37;;;;;;;31.51;31.52;97848.34;5066818;28;20421;-74
2022/05/19 09:09:07;;;;;;;3.53;2.40;;;;;;;31.81;30.48;97846.69;5059803;28;20470;-73
2022/05/19 09:11:57;;;;;;;6.93;2.83;;;;;;;32.12;30.28;97837.63;5067558;28;20405;-72
2022/05/19 09:14:30;;;;;;;6.47;2.70;;;;;;;32.36;29.73;97839.69;5073439;28;20436;-74
2022/05/19 09:17:01;;;;;;;3.30;2.57;;;;;;;32.20;29.25;97836.22;5056290;28;20444;-73
2022/05/19 09:19:34;;;;;;;2.23;2.00;;;;;;;32.48;29.07;97838.25;5057801;28;21014;-73
2022/05/19 09:22:05;;;;;;;2.60;2.40;;;;;;;32.69;28.82;97829.19;5072834;28;20509;-74
2022/05/19 09:24:31;;;;;;;7.87;2.27;;;;;;;32.86;29.35;97832.34;5072385;28;20443;-73
2022/05/19 09:26:58;;;;;;;8.23;2.30;;;;;;;33.06;28.95;97834.09;5073652;28;20432;-74
2022/05/19 09:29:34;;;;;;;3.57;2.50;;;;;;;33.18;28.53;97832.91;5073427;28;20175;-73
2022/05/19 09:32:12;;;;;;;8.67;2.50;;;;;;;33.36;27.54;97834.91;5065479;28;20799;-73
2022/05/19 09:34:41;;;;;;;3.70;2.50;;;;;;;33.49;27.66;97838.88;5071626;28;20485;-73
2022/05/19 09:37:36;;;;;;;5.10;2.97;;;;;;;33.65;28.00;97838.69;5070020;28;21032;-73
2022/05/19 09:40:11;;;;;;;9.03;2.90;;;;;;;33.79;28.47;97841.53;5068614;28;20560;-73
2022/05/19 09:42:59;;;;;;;6.13;2.33;;;;;;;33.88;27.27;97845.28;5069531;28;20890;-73
2022/05/19 09:45:26;;;;;;;3.67;2.33;;;;;;;34.03;27.00;97841.53;5066792;28;20583;-73
2022/05/19 09:47:57;;;;;;;6.00;2.67;;;;;;;34.14;27.21;97837.63;5068332;28;20969;-73
2022/05/19 09:50:26;;;;;;;5.40;2.73;;;;;;;34.22;26.87;97843.50;5073334;28;20409;-73
2022/05/19 09:53:03;;;;;;;3.13;2.43;;;;;;;34.31;26.69;97849.91;5073219;28;20932;-74
2022/05/19 09:55:29;;;;;;;5.40;2.40;;;;;;;34.36;26.81;97849.84;5065285;28;20477;-74
2022/05/19 09:57:57;;;;;;;3.97;2.60;;;;;;;34.43;27.13;97844.88;5072676;28;20943;-74
2022/05/19 10:00:35;;;;;;;2.93;2.63;;;;;;;34.16;27.17;97845.47;5070599;28;20479;-73
2022/05/19 10:03:02;;;;;;;9.70;2.33;;;;;;;34.34;27.80;97852.03;5072801;28;20433;-74
2022/05/19 10:05:45;;;;;;;2.70;2.23;;;;;;;34.36;27.73;97849.84;5058818;28;20448;-73
2022/05/19 10:08:25;;;;;;;5.63;2.57;;;;;;;34.30;27.47;97851.81;5061460;28;20504;-74
2022/05/19 10:11:07;;;;;;;5.70;2.57;;;;;;;34.24;27.18;97852.97;5073012;28;20435;-72
2022/05/19 10:13:38;;;;;;;6.73;2.83;;;;;;;34.55;28.22;97851.78;5071585;28;20454;-73
2022/05/19 10:16:09;;;;;;;3.80;2.53;;;;;;;34.70;28.72;97848.84;5072629;28;20478;-73
2022/05/19 10:18:44;;;;;;;3.97;2.47;;;;;;;34.88;27.75;97843.69;5071796;28;20462;-73
2022/05/19 10:21:31;;;;;;;6.70;2.60;;;;;;;35.05;27.74;97838.50;5072415;28;20464;-73
2022/05/19 10:24:19;;;;;;;9.43;2.80;;;;;;;35.23;27.35;97836.03;5071588;28;20535;-72
2022/05/19 10:31:03;;;;;;;3.10;2.70;;;;;;;35.33;27.66;97832.34;5072345;28;20436;-72
2022/05/19 10:32:54;;;;;;;4.23;2.27;;;;;;;35.57;26.63;97832.19;5072200;28;20416;-73
2022/05/19 10:35:29;;;;;;;3.43;2.67;;;;;;;35.63;26.63;97827.44;5065601;28;20432;-72
2022/05/19 10:38:32;;;;;;;3.67;2.60;;;;;;;35.57;27.53;97815.03;5061473;28;21039;-73
2022/05/19 10:41:03;;;;;;;6.13;2.63;;;;;;;35.67;27.19;97815.63;5061133;28;20540;-73
2022/05/19 10:44:00;;;;;;;7.70;2.80;;;;;;;35.61;26.60;97818.75;5072267;28;20428;-72
2022/05/19 10:46:32;;;;;;;3.80;2.50;;;;;;;35.51;26.75;97812.41;5071496;28;20517;-73
2022/05/19 10:49:16;;;;;;;5.73;3.07;;;;;;;35.69;26.82;97812.63;5071432;28;20787;-74
2022/05/19 10:51:59;;;;;;;5.10;2.73;;;;;;;35.78;26.48;97810.78;5074336;28;20994;-73
2022/05/19 10:54:34;;;;;;;4.40;2.53;;;;;;;35.93;26.57;97806.13;5070708;28;20435;-73
2022/05/19 10:57:26;;;;;;;5.10;2.77;;;;;;;36.11;26.32;97802.47;5071777;28;20497;-74
2022/05/19 10:59:57;;;;;;;3.10;2.70;;;;;;;36.32;26.30;97801.22;5069922;28;20867;-73
2022/05/19 11:02:28;;;;;;;12.20;2.93;;;;;;;36.48;25.74;97794.34;5071469;28;21013;-73
2022/05/19 11:05:05;;;;;;;3.63;2.37;;;;;;;36.51;25.34;97796.47;5065933;28;20428;-73
2022/05/19 11:07:40;;;;;;;4.20;3.50;;;;;;;36.28;25.36;97790.13;5067680;28;20479;-73
2022/05/19 11:10:29;;;;;;;6.37;3.10;;;;;;;35.94;25.99;97792.22;5064674;28;20426;-73
2022/05/19 11:12:58;;;;;;;5.57;2.80;;;;;;;35.79;27.20;97792.53;5071107;28;20455;-74
2022/05/19 11:15:23;;;;;;;10.73;2.87;;;;;;;35.82;27.01;97795.44;5045541;28;20447;-73
2022/05/19 11:18:02;;;;;;;3.03;2.73;;;;;;;35.91;26.93;97787.38;5071277;28;20472;-74
2022/05/19 11:20:44;;;;;;;3.97;2.70;;;;;;;35.93;27.29;97790.59;5055571;28;20201;-74
2022/05/19 11:23:38;;;;;;;6.03;3.03;;;;;;;36.07;27.31;97789.78;5071136;28;20420;-73
2022/05/19 11:26:26;;;;;;;3.00;2.70;;;;;;;36.16;26.48;97787.13;5060488;28;20490;-74
2022/05/19 11:29:16;;;;;;;5.10;2.67;;;;;;;36.27;26.07;97786.59;5071244;28;20899;-73
2022/05/19 11:31:47;;;;;;;7.73;2.97;;;;;;;36.22;26.00;97791.38;5071032;28;20424;-74
2022/05/19 11:34:18;;;;;;;5.80;2.77;;;;;;;36.28;26.37;97785.50;5071152;28;20420;-73
2022/05/19 11:36:51;;;;;;;6.53;3.03;;;;;;;36.51;26.42;97782.00;5065539;28;20452;-74
2022/05/19 11:39:27;;;;;;;3.83;2.70;;;;;;;36.73;25.93;97778.47;5052462;28;20467;-73
2022/05/19 11:41:54;;;;;;;4.10;2.97;;;;;;;36.91;25.77;97778.59;5068503;28;20451;-73
2022/05/19 11:44:27;;;;;;;4.83;2.97;;;;;;;36.85;25.59;97770.50;5069718;28;20428;-74
2022/05/19 11:47:11;;;;;;;3.43;2.90;;;;;;;36.97;26.75;97769.16;5066015;28;20467;-73
2022/05/19 11:55:39;;;;;;;5.33;2.77;;;;;;;36.92;25.87;97770.09;5069985;28;20550;-74
2022/05/19 11:58:19;;;;;;;3.93;2.73;;;;;;;36.81;25.41;97764.06;5070662;28;20443;-73
2022/05/19 12:01:07;;;;;;;10.37;3.17;;;;;;;36.63;26.04;97760.41;5067517;28;20455;-73
2022/05/19 12:03:43;;;;;;;7.10;3.10;;;;;;;36.72;26.46;97755.00;5070465;28;20508;-73